createdAt,value
2018-03-25T00:01:15.690Z,30.05
2018-03-25T00:03:44.708Z,31.48
2018-03-25T00:06:13.713Z,31.02
2018-03-25T00:08:42.871Z,39.75
2018-03-25T00:11:11.937Z,40.30
2018-03-25T00:13:41.400Z,40.25
2018-03-25T00:16:10.537Z,40.58
2018-03-25T00:18:39.741Z,38.80
2018-03-25T00:21:08.950Z,42.70
2018-03-25T00:23:38.037Z,43.15
2018-03-25T00:26:07.239Z,42.60
2018-03-25T00:28:36.262Z,42.30
2018-03-25T00:31:05.189Z,41.88
2018-03-25T00:33:34.235Z,43.33
2018-03-25T00:36:03.358Z,38.78
2018-03-25T00:38:32.441Z,44.58
2018-03-25T00:41:01.430Z,41.90
2018-03-25T00:43:30.546Z,41.67
2018-03-25T00:45:59.730Z,42.58
2018-03-25T00:48:29.088Z,39.80
2018-03-25T00:50:58.211Z,37.92
2018-03-25T00:53:27.425Z,37.65
2018-03-25T00:55:56.617Z,33.67
2018-03-25T00:58:25.857Z,35.40
2018-03-25T01:00:54.836Z,34.70
2018-03-25T01:03:23.970Z,35.60
2018-03-25T01:05:53.109Z,35.63
2018-03-25T01:08:22.105Z,36.17
2018-03-25T01:10:51.567Z,37.95
2018-03-25T01:13:20.690Z,38.17
2018-03-25T01:16:01.231Z,38.15
2018-03-25T01:18:30.117Z,39.45
2018-03-25T01:20:59.316Z,43.83
2018-03-25T01:23:28.509Z,33.72
2018-03-25T01:25:57.974Z,36.50
2018-03-25T01:28:27.010Z,34.28
2018-03-25T01:30:56.105Z,34.40
2018-03-25T01:33:25.301Z,33.83
2018-03-25T01:35:54.412Z,34.30
2018-03-25T01:38:23.637Z,36.20
2018-03-25T01:40:52.798Z,36.50
2018-03-25T01:43:21.992Z,37.03
2018-03-25T01:45:51.841Z,35.13
2018-03-25T01:48:21.012Z,36.08
2018-03-25T01:50:50.202Z,36.08
2018-03-25T01:53:19.427Z,42.05
2018-03-25T01:55:48.607Z,42.22
2018-03-25T01:58:17.802Z,42.40
2018-03-25T02:00:46.994Z,47.72
2018-03-25T02:03:16.099Z,43.70
2018-03-25T02:05:45.295Z,45.28
2018-03-25T02:08:20.602Z,44.20
2018-03-25T02:10:49.898Z,43.85
2018-03-25T02:13:24.964Z,43.50
2018-03-25T02:15:57.143Z,41.50
2018-03-25T02:18:26.405Z,42.13
2018-03-25T02:20:55.539Z,38.25
2018-03-25T02:23:24.871Z,36.35
2018-03-25T02:25:54.007Z,37.90
2018-03-25T02:28:23.034Z,29.85
2018-03-25T02:30:52.045Z,29.20
2018-03-25T02:33:21.314Z,28.95
2018-03-25T02:35:51.699Z,29.77
2018-03-25T02:38:20.798Z,29.45
2018-03-25T02:40:49.845Z,29.90
2018-03-25T02:43:18.938Z,30.02
2018-03-25T02:45:48.170Z,27.30
2018-03-25T02:48:17.325Z,27.58
2018-03-25T02:50:46.525Z,28.02
2018-03-25T02:53:15.709Z,26.42
2018-03-25T02:55:45.017Z,28.77
2018-03-25T02:58:14.233Z,27.27
2018-03-25T03:00:43.253Z,28.17
2018-03-25T03:03:12.273Z,27.45
2018-03-25T03:05:41.331Z,26.73
2018-03-25T03:08:10.537Z,23.80
2018-03-25T03:10:39.697Z,24.05
2018-03-25T03:13:08.997Z,25.98
2018-03-25T03:15:38.178Z,24.12
2018-03-25T03:18:07.409Z,23.67
2018-03-25T03:20:36.451Z,24.90
2018-03-25T03:23:05.643Z,24.30
2018-03-25T03:25:34.577Z,25.62
2018-03-25T03:28:03.573Z,27.90
2018-03-25T03:30:35.073Z,25.88
2018-03-25T03:33:04.116Z,23.48
2018-03-25T03:35:33.322Z,25.02
2018-03-25T03:38:02.573Z,24.08
2018-03-25T03:40:31.714Z,23.77
2018-03-25T03:43:00.872Z,22.23
2018-03-25T03:45:30.034Z,22.67
2018-03-25T03:47:58.937Z,21.77
2018-03-25T03:50:27.993Z,24.05
2018-03-25T03:52:57.295Z,23.80
2018-03-25T03:55:26.552Z,24.00
2018-03-25T03:57:55.699Z,24.00
2018-03-25T04:00:25.048Z,25.17
2018-03-25T04:02:54.241Z,26.12
2018-03-25T04:05:23.529Z,27.00
2018-03-25T04:07:52.695Z,26.58
2018-03-25T04:10:21.737Z,26.15
2018-03-25T04:12:51.021Z,28.25
2018-03-25T04:15:20.190Z,27.48
2018-03-25T04:17:49.128Z,25.75
2018-03-25T04:20:18.295Z,26.35
2018-03-25T04:22:47.510Z,26.87
2018-03-25T04:25:16.647Z,24.52
2018-03-25T04:27:45.775Z,25.77
2018-03-25T04:30:15.180Z,27.37
2018-03-25T04:32:44.301Z,27.35
2018-03-25T04:35:13.349Z,26.90
2018-03-25T04:37:42.385Z,27.40
2018-03-25T04:40:11.478Z,28.40
2018-03-25T04:42:40.845Z,24.87
2018-03-25T04:45:10.085Z,27.62
2018-03-25T04:47:39.287Z,27.20
2018-03-25T04:50:08.442Z,25.65
2018-03-25T04:52:37.686Z,27.60
2018-03-25T04:55:06.630Z,25.65
2018-03-25T04:57:35.685Z,24.85
2018-03-25T05:00:04.898Z,23.98
2018-03-25T05:02:34.121Z,24.75
2018-03-25T05:05:03.366Z,23.98
2018-03-25T05:07:32.561Z,24.12
2018-03-25T05:10:01.722Z,24.20
2018-03-25T05:12:30.926Z,24.12
2018-03-25T05:15:00.173Z,24.87
2018-03-25T05:17:29.309Z,25.05
2018-03-25T05:19:58.405Z,28.10
2018-03-25T05:22:27.665Z,25.73
2018-03-25T05:24:56.845Z,26.70
2018-03-25T05:27:26.005Z,27.37
2018-03-25T05:29:55.161Z,26.10
2018-03-25T05:32:24.443Z,29.30
2018-03-25T05:34:53.598Z,27.85
2018-03-25T05:37:22.808Z,27.02
2018-03-25T05:39:52.003Z,26.77
2018-03-25T05:42:21.960Z,25.83
2018-03-25T05:44:51.193Z,26.73
2018-03-25T05:47:20.211Z,30.12
2018-03-25T05:49:49.234Z,26.30
2018-03-25T05:52:18.400Z,26.92
2018-03-25T05:54:47.533Z,28.12
2018-03-25T05:57:16.731Z,25.10
2018-03-25T05:59:46.093Z,25.20
2018-03-25T06:02:15.298Z,27.17
2018-03-25T06:04:44.497Z,27.33
2018-03-25T06:07:13.726Z,24.77
2018-03-25T06:09:43.007Z,25.05
2018-03-25T06:12:12.090Z,25.27
2018-03-25T06:14:41.129Z,26.70
2018-03-25T06:17:10.274Z,26.55
2018-03-25T06:19:39.379Z,29.33
2018-03-25T06:22:08.519Z,25.92
2018-03-25T06:24:37.477Z,28.48
2018-03-25T06:27:06.767Z,26.62
2018-03-25T06:29:35.805Z,25.25
2018-03-25T06:32:04.961Z,25.30
2018-03-25T06:34:34.097Z,25.77
2018-03-25T06:37:03.222Z,28.65
2018-03-25T06:39:32.268Z,29.80
2018-03-25T06:42:01.360Z,29.20
2018-03-25T06:44:30.384Z,31.12
2018-03-25T06:46:59.436Z,31.77
2018-03-25T06:49:28.526Z,30.98
2018-03-25T06:51:57.776Z,31.67
2018-03-25T06:54:26.897Z,32.90
2018-03-25T06:56:55.869Z,32.75
2018-03-25T06:59:24.862Z,32.75
2018-03-25T07:01:54.176Z,34.28
2018-03-25T07:04:23.255Z,30.00
2018-03-25T07:06:52.506Z,29.00
2018-03-25T07:09:21.723Z,33.55
2018-03-25T07:11:50.889Z,31.75
2018-03-25T07:14:20.129Z,30.50
2018-03-25T07:16:49.184Z,29.20
2018-03-25T07:19:18.381Z,30.00
2018-03-25T07:21:47.410Z,29.65
2018-03-25T07:24:16.841Z,29.58
2018-03-25T07:26:45.885Z,26.05
2018-03-25T07:29:14.825Z,25.13
2018-03-25T07:31:43.806Z,24.23
2018-03-25T07:34:12.771Z,23.52
2018-03-25T07:36:41.743Z,26.65
2018-03-25T07:39:10.663Z,27.10
2018-03-25T07:41:39.669Z,26.58
2018-03-25T07:44:08.800Z,24.33
2018-03-25T07:46:37.776Z,26.27
2018-03-25T07:49:07.052Z,26.40
2018-03-25T07:51:36.586Z,29.35
2018-03-25T07:54:05.586Z,29.05
2018-03-25T07:56:34.598Z,27.90
2018-03-25T07:59:03.520Z,29.40
2018-03-25T08:01:32.503Z,30.83
2018-03-25T08:04:01.606Z,28.35
2018-03-25T08:06:30.591Z,30.60
2018-03-25T08:08:59.559Z,29.10
2018-03-25T08:11:28.600Z,29.48
2018-03-25T08:13:57.633Z,30.67
2018-03-25T08:16:26.809Z,30.30
2018-03-25T08:18:55.721Z,28.25
2018-03-25T08:21:24.674Z,28.33
2018-03-25T08:23:53.844Z,25.75
2018-03-25T08:26:22.875Z,28.05
2018-03-25T08:28:51.945Z,22.37
2018-03-25T08:31:21.077Z,22.13
2018-03-25T08:33:50.149Z,22.73
2018-03-25T08:36:19.226Z,20.42
2018-03-25T08:38:48.629Z,21.75
2018-03-25T08:41:17.662Z,22.58
2018-03-25T08:43:46.714Z,23.15
2018-03-25T08:46:15.859Z,25.50
2018-03-25T08:48:44.818Z,25.35
2018-03-25T08:51:13.814Z,22.02
2018-03-25T08:53:42.841Z,21.50
2018-03-25T08:56:12.201Z,21.23
2018-03-25T08:58:41.601Z,22.25
2018-03-25T09:01:10.733Z,19.65
2018-03-25T09:03:39.801Z,25.60
2018-03-25T09:06:08.969Z,37.45
2018-03-25T09:08:38.012Z,19.77
2018-03-25T09:11:06.993Z,21.33
2018-03-25T09:13:36.017Z,21.37
2018-03-25T09:16:04.978Z,23.50
2018-03-25T09:18:34.020Z,20.60
2018-03-25T09:21:02.914Z,24.87
2018-03-25T09:23:31.991Z,26.50
2018-03-25T09:26:01.253Z,22.60
2018-03-25T09:31:11.482Z,29.92
2018-03-25T09:33:40.581Z,20.02
2018-03-25T09:36:09.827Z,22.05
2018-03-25T09:38:38.807Z,26.92
2018-03-25T09:41:07.745Z,22.65
2018-03-25T09:43:36.798Z,26.25
2018-03-25T09:46:05.755Z,24.30
2018-03-25T09:48:34.707Z,25.65
2018-03-25T09:51:03.778Z,27.77
2018-03-25T09:53:32.815Z,26.23
2018-03-25T09:56:01.827Z,24.20
2018-03-25T09:58:30.886Z,28.25
2018-03-25T10:01:05.642Z,26.20
2018-03-25T10:03:34.649Z,25.35
2018-03-25T10:06:03.601Z,27.17
2018-03-25T10:08:32.731Z,26.17
2018-03-25T10:11:01.711Z,24.75
2018-03-25T10:13:30.714Z,25.98
2018-03-25T10:15:59.821Z,25.88
2018-03-25T10:18:28.831Z,26.45
2018-03-25T10:20:57.831Z,22.80
2018-03-25T10:23:26.871Z,24.27
2018-03-25T10:25:55.887Z,25.30
2018-03-25T10:28:24.869Z,25.27
2018-03-25T10:30:53.967Z,25.73
2018-03-25T10:33:23.068Z,25.75
2018-03-25T10:35:52.361Z,25.55
2018-03-25T10:38:21.381Z,25.10
2018-03-25T10:40:50.510Z,25.75
2018-03-25T10:43:19.693Z,26.00
2018-03-25T10:45:49.519Z,24.30
2018-03-25T10:48:18.739Z,24.23
2018-03-25T10:50:47.741Z,25.15
2018-03-25T10:53:16.758Z,25.12
2018-03-25T10:55:45.665Z,24.30
2018-03-25T10:58:14.624Z,37.78
2018-03-25T11:00:43.651Z,19.85
2018-03-25T11:03:12.865Z,21.15
2018-03-25T11:05:41.918Z,20.02
2018-03-25T11:08:11.011Z,22.20
2018-03-25T11:10:40.109Z,19.35
2018-03-25T11:13:09.198Z,19.62
2018-03-25T11:15:38.241Z,20.52
2018-03-25T11:18:07.451Z,18.70
2018-03-25T11:20:36.902Z,20.02
2018-03-25T11:23:05.998Z,20.63
2018-03-25T11:25:35.049Z,22.48
2018-03-25T11:28:04.140Z,23.48
2018-03-25T11:30:33.317Z,22.08
2018-03-25T11:33:02.386Z,21.67
2018-03-25T11:35:31.728Z,19.80
2018-03-25T11:38:00.786Z,17.20
2018-03-25T11:40:29.917Z,17.47
2018-03-25T11:42:59.013Z,19.17
2018-03-25T11:45:28.091Z,17.77
2018-03-25T11:47:57.006Z,18.17
2018-03-25T11:50:25.983Z,17.43
2018-03-25T11:52:55.252Z,18.23
2018-03-25T11:55:24.187Z,20.63
2018-03-25T11:57:53.249Z,14.73
2018-03-25T12:00:22.571Z,17.12
2018-03-25T12:02:51.895Z,18.80
2018-03-25T12:05:21.030Z,20.12
2018-03-25T12:07:50.197Z,19.30
2018-03-25T12:10:19.277Z,20.77
2018-03-25T12:12:48.402Z,17.02
2018-03-25T12:15:18.222Z,19.07
2018-03-25T12:17:47.248Z,16.70
2018-03-25T12:20:16.380Z,16.37
2018-03-25T12:22:45.881Z,16.42
2018-03-25T12:25:15.140Z,18.25
2018-03-25T12:27:44.233Z,19.12
2018-03-25T12:30:13.474Z,18.83
2018-03-25T12:32:42.678Z,26.37
2018-03-25T12:35:11.873Z,18.53
2018-03-25T12:37:41.023Z,19.87
2018-03-25T12:40:10.169Z,16.20
2018-03-25T12:42:39.302Z,17.20
2018-03-25T12:45:08.524Z,17.93
2018-03-25T12:47:37.658Z,18.80
2018-03-25T12:50:06.861Z,18.40
2018-03-25T12:52:36.119Z,19.20
2018-03-25T12:55:05.314Z,17.20
2018-03-25T12:57:34.702Z,19.97
2018-03-25T13:00:03.805Z,17.85
2018-03-25T13:02:32.963Z,18.55
2018-03-25T13:05:02.247Z,22.48
2018-03-25T13:07:31.319Z,19.65
2018-03-25T13:10:00.505Z,23.33
2018-03-25T13:12:29.686Z,21.42
2018-03-25T13:14:58.692Z,22.17
2018-03-25T13:17:27.937Z,20.37
2018-03-25T13:19:57.077Z,19.75
2018-03-25T13:22:26.124Z,21.52
2018-03-25T13:24:55.171Z,19.87
2018-03-25T13:27:24.299Z,19.37
2018-03-25T13:29:53.375Z,19.95
2018-03-25T13:32:22.652Z,20.05
2018-03-25T13:34:51.859Z,20.08
2018-03-25T13:37:21.014Z,21.52
2018-03-25T13:39:50.034Z,17.42
2018-03-25T13:42:19.109Z,21.62
2018-03-25T13:44:48.291Z,21.08
2018-03-25T13:47:17.631Z,19.85
2018-03-25T13:49:46.760Z,18.85
2018-03-25T13:52:15.865Z,23.20
2018-03-25T13:54:44.935Z,27.02
2018-03-25T13:57:13.953Z,22.37
2018-03-25T13:59:43.038Z,24.17
2018-03-25T14:02:12.055Z,23.62
2018-03-25T14:04:41.209Z,25.10
2018-03-25T14:07:10.327Z,25.98
2018-03-25T14:09:39.327Z,23.12
2018-03-25T14:12:08.410Z,19.77
2018-03-25T14:14:37.442Z,23.83
2018-03-25T14:17:06.622Z,23.83
2018-03-25T14:19:36.445Z,27.50
2018-03-25T14:22:05.542Z,26.25
2018-03-25T14:24:34.646Z,27.00
2018-03-25T14:27:03.669Z,27.00
2018-03-25T14:29:32.803Z,26.58
2018-03-25T14:32:02.129Z,30.50
2018-03-25T14:34:31.119Z,24.95
2018-03-25T14:37:00.086Z,28.33
2018-03-25T14:39:29.190Z,26.67
2018-03-25T14:41:58.283Z,30.17
2018-03-25T14:44:27.291Z,23.73
2018-03-25T14:46:56.205Z,30.00
2018-03-25T14:49:25.306Z,28.15
2018-03-25T14:51:54.276Z,29.10
2018-03-25T14:54:23.274Z,28.10
2018-03-25T14:56:52.418Z,27.75
2018-03-25T14:59:21.481Z,27.37
2018-03-25T15:01:50.521Z,30.88
2018-03-25T15:04:19.480Z,27.70
2018-03-25T15:06:48.485Z,28.20
2018-03-25T15:09:17.765Z,28.35
2018-03-25T15:11:46.921Z,28.83
2018-03-25T15:14:16.012Z,28.48
2018-03-25T15:16:45.226Z,31.92
2018-03-25T15:19:14.179Z,31.27
2018-03-25T15:21:43.146Z,33.30
2018-03-25T15:24:12.349Z,32.83
2018-03-25T15:26:41.457Z,35.15
2018-03-25T15:29:10.516Z,34.90
2018-03-25T15:31:39.489Z,35.40
2018-03-25T15:34:08.518Z,33.20
2018-03-25T15:36:37.571Z,34.38
2018-03-25T15:39:06.589Z,34.55
2018-03-25T15:41:35.537Z,36.38
2018-03-25T15:44:04.541Z,34.17
2018-03-25T15:46:33.526Z,39.42
2018-03-25T15:49:02.635Z,39.42
2018-03-25T15:51:31.813Z,35.92
2018-03-25T15:54:00.826Z,39.15
2018-03-25T15:56:29.773Z,40.80
2018-03-25T15:58:58.918Z,39.00
2018-03-25T16:01:27.910Z,35.80
2018-03-25T16:03:56.981Z,36.53
2018-03-25T16:06:25.939Z,41.22
2018-03-25T16:08:55.094Z,38.80
2018-03-25T16:11:24.063Z,35.80
2018-03-25T16:13:53.343Z,41.78
2018-03-25T16:16:22.487Z,42.20
2018-03-25T16:18:51.447Z,40.50
2018-03-25T16:21:20.977Z,41.78
2018-03-25T16:23:50.311Z,43.65
2018-03-25T16:26:19.429Z,39.55
2018-03-25T16:28:48.539Z,38.67
2018-03-25T16:31:17.883Z,42.85
2018-03-25T16:33:46.982Z,42.05
2018-03-25T16:36:15.983Z,42.88
2018-03-25T16:38:44.856Z,44.03
2018-03-25T16:41:13.935Z,53.92
2018-03-25T16:43:42.843Z,46.95
2018-03-25T16:46:11.807Z,37.72
2018-03-25T16:48:40.886Z,42.85
2018-03-25T16:51:10.019Z,42.35
2018-03-25T16:53:39.055Z,41.75
2018-03-25T16:56:08.162Z,37.42
2018-03-25T16:58:37.316Z,36.25
2018-03-25T17:01:06.511Z,39.17
2018-03-25T17:03:35.468Z,38.03
2018-03-25T17:06:04.420Z,36.35
2018-03-25T17:08:33.609Z,34.00
2018-03-25T17:11:02.636Z,36.95
2018-03-25T17:13:31.657Z,34.53
2018-03-25T17:16:00.666Z,35.10
2018-03-25T17:18:29.585Z,33.58
2018-03-25T17:20:58.670Z,34.90
2018-03-25T17:23:27.757Z,35.28
2018-03-25T17:25:56.753Z,39.00
2018-03-25T17:28:25.742Z,41.83
2018-03-25T17:30:55.107Z,40.65
2018-03-25T17:33:24.261Z,37.53
2018-03-25T17:35:53.379Z,42.92
2018-03-25T17:38:22.394Z,40.42
2018-03-25T17:40:51.369Z,40.40
2018-03-25T17:43:20.322Z,43.45
2018-03-25T17:45:49.294Z,38.05
2018-03-25T17:48:18.213Z,39.78
2018-03-25T17:50:47.306Z,38.10
2018-03-25T17:53:16.331Z,41.37
2018-03-25T17:55:45.424Z,38.08
2018-03-25T17:58:14.442Z,43.05
2018-03-25T18:00:43.551Z,42.70
2018-03-25T18:03:12.692Z,39.35
2018-03-25T18:05:43.227Z,39.95
2018-03-25T18:08:12.253Z,43.20
2018-03-25T18:10:41.308Z,44.25
2018-03-25T18:13:10.426Z,45.00
2018-03-25T18:15:39.462Z,44.00
2018-03-25T18:18:08.447Z,41.88
2018-03-25T18:20:37.413Z,42.10
2018-03-25T18:23:06.398Z,40.17
2018-03-25T18:25:35.327Z,41.33
2018-03-25T18:28:04.439Z,45.30
2018-03-25T18:30:33.493Z,43.50
2018-03-25T18:33:02.494Z,44.55
2018-03-25T18:35:31.505Z,45.35
2018-03-25T18:38:00.555Z,41.90
2018-03-25T18:40:29.669Z,39.80
2018-03-25T18:42:58.825Z,40.47
2018-03-25T18:45:28.000Z,39.80
2018-03-25T18:47:57.088Z,44.47
2018-03-25T18:50:26.153Z,38.67
2018-03-25T18:52:55.148Z,42.28
2018-03-25T18:55:24.280Z,45.53
2018-03-25T18:57:53.259Z,50.03
2018-03-25T19:00:22.249Z,49.80
2018-03-25T19:02:51.245Z,46.55
2018-03-25T19:05:20.299Z,45.22
2018-03-25T19:07:49.432Z,49.38
2018-03-25T19:10:18.466Z,50.33
2018-03-25T19:12:47.542Z,47.78
2018-03-25T19:15:16.617Z,49.25
2018-03-25T19:17:45.617Z,47.97
2018-03-25T19:20:14.834Z,47.95
2018-03-25T19:22:43.997Z,46.95
2018-03-25T19:25:13.045Z,46.90
2018-03-25T19:27:42.854Z,44.17
2018-03-25T19:30:11.913Z,41.37
2018-03-25T19:32:40.968Z,42.97
2018-03-25T19:35:09.938Z,44.03
2018-03-25T19:37:38.980Z,45.78
2018-03-25T19:40:08.027Z,46.45
2018-03-25T19:42:37.055Z,44.92
2018-03-25T19:45:06.136Z,45.70
2018-03-25T19:47:35.277Z,45.42
2018-03-25T19:50:04.378Z,45.42
2018-03-25T19:52:33.673Z,46.47
2018-03-25T19:55:02.834Z,48.53
2018-03-25T19:57:31.819Z,49.40
2018-03-25T20:00:00.822Z,47.00
2018-03-25T20:02:29.787Z,48.33
2018-03-25T20:04:58.741Z,47.20
2018-03-25T20:07:27.955Z,48.22
2018-03-25T20:09:56.983Z,49.45
2018-03-25T20:12:25.959Z,50.45
2018-03-25T20:14:54.938Z,49.05
2018-03-25T20:17:23.975Z,57.30
2018-03-25T20:19:53.949Z,49.90
2018-03-25T20:22:22.985Z,51.90
2018-03-25T20:24:52.042Z,47.67
2018-03-25T20:27:21.013Z,50.65
2018-03-25T20:29:49.965Z,53.67
2018-03-25T20:32:18.921Z,53.85
2018-03-25T20:34:47.954Z,54.47
2018-03-25T20:37:17.018Z,50.45
2018-03-25T20:39:46.038Z,49.08
2018-03-25T20:42:15.038Z,50.75
2018-03-25T20:44:44.161Z,47.80
2018-03-25T20:47:13.275Z,50.55
2018-03-25T20:49:42.205Z,50.95
2018-03-25T20:52:11.155Z,47.70
2018-03-25T20:54:40.154Z,47.00
2018-03-25T20:57:09.082Z,48.55
2018-03-25T20:59:38.174Z,44.88
2018-03-25T21:02:07.149Z,45.00
2018-03-25T21:04:36.157Z,47.13
2018-03-25T21:07:05.279Z,45.60
2018-03-25T21:09:34.301Z,43.60
2018-03-25T21:12:03.331Z,42.53
2018-03-25T21:14:32.407Z,43.97
2018-03-25T21:17:01.451Z,43.20
2018-03-25T21:19:30.656Z,41.70
2018-03-25T21:21:59.645Z,39.67
2018-03-25T21:24:28.687Z,41.70
2018-03-25T21:26:57.738Z,38.85
2018-03-25T21:29:26.718Z,36.55
2018-03-25T21:31:55.929Z,36.15
2018-03-25T21:34:24.965Z,40.12
2018-03-25T21:36:53.986Z,36.95
2018-03-25T21:39:22.912Z,37.75
2018-03-25T21:41:52.045Z,37.90
2018-03-25T21:44:21.253Z,38.95
2018-03-25T21:46:50.355Z,39.50
2018-03-25T21:49:19.374Z,38.80
2018-03-25T21:51:48.461Z,38.10
2018-03-25T21:54:17.529Z,39.05
2018-03-25T21:56:46.565Z,36.15
2018-03-25T21:59:15.839Z,36.28
2018-03-25T22:01:45.082Z,36.55
2018-03-25T22:04:14.117Z,35.80
2018-03-25T22:06:43.318Z,37.20
2018-03-25T22:09:12.369Z,35.85
2018-03-25T22:11:41.341Z,36.35
2018-03-25T22:14:10.498Z,38.40
2018-03-25T22:16:40.314Z,39.80
2018-03-25T22:19:09.470Z,39.85
2018-03-25T22:21:38.749Z,42.53
2018-03-25T22:24:08.529Z,42.05
2018-03-25T22:26:37.577Z,38.65
2018-03-25T22:29:06.617Z,37.00
2018-03-25T22:31:35.625Z,39.65
2018-03-25T22:34:04.860Z,41.80
2018-03-25T22:36:34.027Z,41.80
2018-03-25T22:39:03.238Z,42.15
2018-03-25T22:41:32.274Z,44.55
2018-03-25T22:44:01.349Z,47.05
2018-03-25T22:46:30.447Z,50.17
2018-03-25T22:48:59.595Z,45.67
2018-03-25T22:51:28.562Z,49.00
2018-03-25T22:53:57.546Z,48.42
2018-03-25T22:56:26.780Z,49.22
2018-03-25T22:58:55.773Z,50.35
2018-03-25T23:01:24.898Z,50.63
2018-03-25T23:03:53.971Z,49.35
2018-03-25T23:06:23.085Z,47.88
2018-03-25T23:11:32.354Z,52.58
2018-03-25T23:14:01.645Z,54.50
2018-03-25T23:16:30.809Z,52.92
2018-03-25T23:18:59.802Z,52.53
2018-03-25T23:21:28.742Z,49.78
2018-03-25T23:23:57.925Z,52.72
2018-03-25T23:26:26.985Z,45.60
2018-03-25T23:28:56.069Z,47.13
2018-03-25T23:31:25.224Z,48.75
2018-03-25T23:33:54.337Z,47.03
2018-03-25T23:36:23.365Z,47.10
2018-03-25T23:38:52.421Z,45.80
2018-03-25T23:41:21.507Z,44.55
2018-03-25T23:43:50.797Z,44.78
2018-03-25T23:46:20.214Z,46.08
2018-03-25T23:48:49.259Z,45.53
2018-03-25T23:51:18.389Z,48.63
2018-03-25T23:53:47.590Z,46.22
2018-03-25T23:56:16.755Z,47.62
2018-03-25T23:58:45.772Z,51.30
